Latest Weather Observations for Evans Head

IDN60801

Issued at 10:35 pm EDT Saturday 1 November 2014 (issued every 30 minutes, with the page automatically refreshed every 10 minutes)

About weather observations | Map of weather stations | Latest weather observations for NSW | Other Formats
Station Details ID: 058212 Name: EVANS HEAD RAAF BOMBING RANGE AWS Lat: -29.18 Lon: 153.40 Height: 62.5 m
Data from the previous 72 hours. | See also: Recent months at Evans Head
Date/Time
EDT
Temp
°C
App
Temp
°C
Dew
Point
Rel
Hum
%
Delta-T
°C
Wind Press
QNH
hPa
Press
MSL
hPa
Rain
since 9 am
mm
Dir
 
Spd
km/h
Gust
km/h
Spd
kts
Gust
kts
01/10:30pm 22.7 24.5 18.7 78 2.5 N 7 15 4 8 1009.0 1008.8 0.0
01/10:11pm 23.0 22.6 19.0 78 2.5 W 19 28 10 15 1009.5 1009.3 0.0
01/10:00pm 22.8 21.1 19.0 79 2.4 N 26 39 14 21 1007.2 1007.0 0.0
01/09:30pm 22.7 21.3 18.9 79 2.4 N 24 35 13 19 1007.2 1007.0 0.0
01/09:00pm 23.0 20.8 18.7 77 2.7 N 28 39 15 21 1007.0 1006.8 0.0
01/08:30pm 23.0 20.9 19.0 78 2.5 N 28 39 15 21 1006.6 1006.4 0.0
01/08:00pm 23.3 21.1 18.8 76 2.9 N 28 44 15 24 1006.4 1006.2 0.0
01/07:30pm 23.4 21.4 19.1 77 2.7 N 28 41 15 22 1005.9 1005.7 0.0
01/07:00pm 23.3 20.9 19.2 78 2.6 N 30 48 16 26 1005.4 1005.2 0.0
01/06:48pm 23.4 20.4 19.1 77 2.7 N 33 56 18 30 1005.3 1005.1 0.0
01/06:30pm 23.8 20.4 18.9 74 3.1 N 35 50 19 27 1005.4 1005.2 0.0
01/06:00pm 24.7 20.7 18.6 69 3.9 N 37 59 20 32 1005.3 1005.1 0.0
01/05:52pm 25.1 21.5 18.5 67 4.2 N 35 57 19 31 1005.4 1005.2 0.0
01/05:30pm 26.3 23.4 18.9 63 4.7 N 32 44 17 24 1005.5 1005.3 0.0
01/05:10pm 27.2 25.3 19.3 62 5.1 N 28 46 15 25 1005.7 1005.5 0.0
01/05:00pm 27.3 25.3 19.1 61 5.3 N 28 44 15 24 1005.8 1005.6 0.0
01/04:30pm 28.5 28.0 20.0 60 5.6 N 22 37 12 20 1006.1 1005.9 0.0
01/04:00pm 28.3 26.2 19.0 57 6.0 NNE 28 41 15 22 1006.6 1006.4 0.0
01/03:30pm 27.8 26.1 18.2 56 6.1 N 24 41 13 22 1007.2 1007.0 0.0
01/03:00pm 30.4 29.8 19.7 52 7.0 N 22 39 12 21 1007.8 1007.6 0.0
01/02:30pm 29.4 28.2 20.0 57 6.2 NNE 26 41 14 22 1008.3 1008.1 0.0
01/02:00pm 30.0 28.0 18.4 49 7.5 N 26 39 14 21 1009.2 1009.0 0.0
01/01:30pm 29.3 28.0 19.0 53 6.7 NNE 24 41 13 22 1010.0 1009.8 0.0
01/01:00pm 26.6 25.8 18.5 61 5.2 N 20 32 11 17 1010.5 1010.3 0.0
01/12:30pm 27.6 28.7 18.0 55 6.1 N 9 17 5 9 1011.7 1011.5 0.0
01/12:00pm 27.8 27.7 17.0 51 6.8 N 13 26 7 14 1012.2 1012.0 0.0
01/11:30am 27.3 27.8 20.1 64 4.7 N 17 24 9 13 1012.7 1012.5 0.0
01/11:00am 25.7 26.8 19.6 69 3.9 N 13 20 7 11 1013.3 1013.0 0.0
01/10:30am 24.7 25.3 20.2 76 2.9 N 17 24 9 13 1013.6 1013.4 0.0
01/10:00am 23.1 24.2 21.2 89 1.2 N 17 24 9 13 1014.3 1014.1 0.0
01/09:30am 22.4 24.3 21.4 94 0.7 N 13 20 7 11 1014.1 1013.9 0.0
01/09:00am 22.1 24.5 21.6 97 0.3 N 11 15 6 8 1014.0 1013.8 -
01/08:30am 21.3 22.6 20.8 97 0.3 N 15 20 8 11 1014.0 1013.8 -
01/08:00am 20.7 22.0 20.2 97 0.3 N 13 17 7 9 1014.0 1013.8 -
01/07:30am 20.5 21.4 20.0 97 0.3 N 15 20 8 11 1013.0 1012.8 -
01/07:00am 20.0 20.6 19.5 97 0.3 NNE 15 20 8 11 1012.9 1012.7 -
01/06:30am 19.7 20.2 19.2 97 0.3 NNE 15 20 8 11 1013.3 1013.0 -
01/06:00am 19.5 20.7 19.0 97 0.3 NNE 11 17 6 9 1013.4 1013.1 -
01/05:30am 19.7 21.0 19.2 97 0.3 NNE 11 15 6 8 1012.8 1012.6 -
01/05:00am 19.7 21.3 19.2 97 0.3 N 9 15 5 8 1012.6 1012.4 -
01/04:30am 19.7 21.3 19.2 97 0.3 NNE 9 13 5 7 1012.3 1012.1 -
01/04:00am 20.1 21.8 19.4 96 0.4 NNE 9 13 5 7 1012.1 1011.9 -
01/03:30am 19.9 21.6 19.4 97 0.3 N 9 13 5 7 1012.0 1011.8 -
01/03:00am 19.4 20.9 18.9 97 0.3 NNW 9 13 5 7 1012.6 1012.4 -
01/02:00am 20.2 21.7 19.0 93 0.8 N 9 15 5 8 1012.4 1012.2 0.0
01/01:30am 20.4 21.9 18.9 91 0.9 N 9 15 5 8 1012.1 1011.9 0.0
01/01:00am 20.6 21.0 18.9 90 1.1 N 15 24 8 13 1012.3 1012.1 0.0
01/12:30am 20.7 20.5 18.6 88 1.3 N 17 28 9 15 1012.7 1012.5 0.0
01/12:00am 21.0 20.5 18.6 86 1.5 N 19 24 10 13 1013.0 1012.8 0.0
 
Date/Time
EDT
Temp
°C
App
Temp
°C
Dew
Point
Rel
Hum
%
Delta-T
°C
Wind Press
QNH
hPa
Press
MSL
hPa
Rain
since 9 am
mm
Dir
 
Spd
km/h
Gust
km/h
Spd
kts
Gust
kts
31/11:30pm 21.2 20.5 18.6 85 1.6 N 20 30 11 16 1013.3 1013.0 0.0
31/11:00pm 21.5 20.0 18.5 83 1.9 N 24 33 13 18 1013.3 1013.0 0.0
31/10:30pm 21.5 20.8 18.7 84 1.8 N 20 37 11 20 1013.4 1013.1 0.0
31/10:00pm 21.8 21.3 19.2 85 1.7 N 20 32 11 17 1013.6 1013.4 0.0
31/09:30pm 22.0 21.9 19.9 88 1.3 N 20 32 11 17 1013.4 1013.1 0.0
31/09:00pm 22.2 21.5 20.3 89 1.2 N 24 35 13 19 1012.6 1012.4 0.0
31/08:30pm 22.4 21.9 20.7 90 1.1 N 24 39 13 21 1012.3 1012.1 0.0
31/08:00pm 22.5 21.5 20.4 88 1.4 N 26 35 14 19 1011.9 1011.7 0.0
31/07:30pm 22.6 20.7 20.1 86 1.6 N 30 50 16 27 1011.7 1011.5 0.0
31/07:00pm 22.7 20.7 19.9 84 1.8 N 30 48 16 26 1011.4 1011.2 0.0
31/06:36pm 22.6 20.6 19.9 85 1.7 N 30 48 16 26 1011.1 1010.9 0.0
31/06:30pm 22.7 20.3 19.9 84 1.8 N 32 48 17 26 1010.9 1010.7 0.0
31/06:00pm 23.8 22.0 19.5 77 2.8 N 28 39 15 21 1010.9 1010.7 0.0
31/05:30pm 24.3 22.1 19.6 75 3.0 N 30 44 16 24 1011.0 1010.8 0.0
31/05:00pm 24.2 22.0 18.8 72 3.4 N 28 46 15 25 1011.1 1010.9 0.0
31/04:32pm 25.7 23.5 19.6 69 3.9 N 30 48 16 26 1011.1 1010.9 0.0
31/04:30pm 25.3 22.5 19.0 68 4.0 N 32 48 17 26 1011.0 1010.8 0.0
31/04:06pm 26.3 24.1 18.7 63 4.9 N 28 46 15 25 1011.2 1011.0 0.0
31/04:00pm 27.4 25.6 19.5 62 5.1 N 28 43 15 23 1011.3 1011.1 0.0
31/03:30pm 28.0 25.6 19.2 58 5.7 N 30 41 16 22 1011.6 1011.4 0.0
31/03:00pm 28.8 27.6 20.0 59 5.8 NNE 26 39 14 21 1011.9 1011.7 0.0
31/02:30pm 29.4 28.8 18.8 53 6.9 NNE 20 41 11 22 1012.4 1012.2 0.0
31/02:00pm 28.7 28.4 19.1 56 6.2 NNE 19 32 10 17 1013.1 1012.9 0.0
31/01:30pm 30.3 30.0 19.6 52 7.0 N 20 33 11 18 1013.7 1013.5 0.0
31/01:00pm 29.4 28.4 18.8 53 6.9 N 22 32 12 17 1014.1 1013.9 0.0
31/12:30pm 30.4 30.3 20.0 53 6.9 N 20 28 11 15 1014.5 1014.3 0.0
31/12:00pm 29.6 30.0 19.9 56 6.4 NE 17 26 9 14 1014.9 1014.7 0.0
31/11:30am 30.1 31.2 20.4 56 6.4 NNE 15 28 8 15 1015.2 1015.0 0.0
31/11:00am 29.8 30.8 19.5 54 6.7 NNE 13 20 7 11 1015.7 1015.5 0.0
31/10:30am 29.3 30.7 19.6 56 6.3 NNE 11 19 6 10 1015.9 1015.7 0.0
31/10:00am 27.5 29.7 19.6 62 5.1 N 7 13 4 7 1016.1 1015.9 0.0
31/09:30am 26.7 28.0 19.3 64 4.8 N 11 19 6 10 1016.4 1016.2 0.0
31/09:00am 25.4 27.0 19.1 68 4.0 N 9 15 5 8 1016.5 1016.3 0.0
31/08:30am 23.6 25.7 20.1 81 2.3 N 9 15 5 8 1016.6 1016.4 0.0
31/08:00am 21.4 24.2 20.9 97 0.3 N 7 11 4 6 1016.4 1016.2 0.0
31/07:30am 19.3 21.3 19.1 99 0.1 N 7 11 4 6 1016.3 1016.1 0.0
31/07:00am 18.3 19.1 18.1 99 0.1 N 11 15 6 8 1016.0 1015.8 0.0
31/06:30am 17.5 18.3 17.3 99 0.1 N 9 11 5 6 1015.8 1015.6 0.0
31/06:00am 17.0 17.6 16.8 99 0.1 NNW 9 11 5 6 1015.5 1015.3 0.0
31/05:30am 17.0 17.6 16.8 99 0.1 N 9 11 5 6 1015.2 1015.0 0.0
31/05:00am 17.3 18.4 17.1 99 0.1 N 7 9 4 5 1015.1 1014.9 0.0
31/04:30am 17.3 18.0 17.0 98 0.2 N 9 9 5 5 1014.8 1014.6 0.0
31/04:00am 17.6 18.4 17.3 98 0.2 N 9 13 5 7 1014.7 1014.5 0.0
31/03:30am 17.7 18.5 17.4 98 0.2 N 9 13 5 7 1014.7 1014.5 0.0
31/03:00am 18.1 19.1 17.8 98 0.2 N 9 11 5 6 1014.8 1014.6 0.0
31/02:30am 18.0 19.0 17.7 98 0.2 N 9 11 5 6 1015.0 1014.8 0.0
31/02:00am 18.5 19.3 18.2 98 0.2 N 11 17 6 9 1015.1 1014.9 0.0
31/01:30am 18.2 19.6 17.9 98 0.2 N 7 11 4 6 1015.4 1015.2 0.0
31/01:00am 18.6 19.7 18.1 97 0.3 N 9 15 5 8 1015.9 1015.7 0.0
31/12:30am 18.9 19.8 18.4 97 0.3 N 11 17 6 9 1016.0 1015.8 0.0
31/12:00am 19.4 20.5 18.9 97 0.3 N 11 20 6 11 1015.9 1015.7 0.0
 
Date/Time
EDT
Temp
°C
App
Temp
°C
Dew
Point
Rel
Hum
%
Delta-T
°C
Wind Press
QNH
hPa
Press
MSL
hPa
Rain
since 9 am
mm
Dir
 
Spd
km/h
Gust
km/h
Spd
kts
Gust
kts
30/11:30pm 19.9 19.2 19.4 97 0.3 N 22 32 12 17 1015.4 1015.2 0.0
30/11:00pm 20.1 19.8 19.6 97 0.3 N 20 33 11 18 1015.4 1015.2 0.0
30/10:30pm 20.4 19.9 19.9 97 0.3 N 22 35 12 19 1015.1 1014.9 0.0
30/10:00pm 20.5 20.0 20.0 97 0.3 N 22 32 12 17 1015.0 1014.8 0.0
30/09:30pm 20.7 20.2 20.0 96 0.4 N 22 35 12 19 1015.2 1015.0 0.0
30/09:00pm 20.9 19.9 19.7 93 0.8 NNE 24 39 13 21 1014.9 1014.7 0.0
30/08:30pm 20.9 20.2 19.4 91 1.0 NNE 22 37 12 20 1014.5 1014.3 0.0
30/08:00pm 20.8 19.3 18.6 87 1.4 N 24 35 13 19 1014.1 1013.9 0.0
30/07:30pm 20.8 19.8 18.0 84 1.7 NNE 20 33 11 18 1014.0 1013.8 0.0
30/07:00pm 21.1 19.1 17.5 80 2.2 NNE 24 35 13 19 1013.7 1013.5 0.0
30/06:30pm 21.7 20.0 17.1 75 2.8 NNE 22 33 12 18 1013.4 1013.1 0.0
30/06:00pm 22.4 20.5 16.7 70 3.5 NNE 22 37 12 20 1013.3 1013.0 0.0
30/05:30pm 22.9 20.0 16.2 66 4.1 NNE 26 44 14 24 1012.9 1012.7 0.0
30/05:04pm 23.8 20.6 16.3 63 4.6 NNE 28 46 15 25 1012.9 1012.7 0.0
30/05:00pm 23.8 20.6 16.3 63 4.6 NNE 28 41 15 22 1012.9 1012.7 0.0
30/04:30pm 23.5 19.2 15.3 60 4.9 N 32 46 17 25 1013.0 1012.8 0.0
30/04:00pm 25.6 23.8 15.9 55 5.9 NNE 20 33 11 18 1013.1 1012.9 0.0
30/03:30pm 25.6 23.2 15.3 53 6.2 NNE 22 33 12 18 1013.6 1013.4 0.0
30/03:00pm 25.8 24.4 18.0 62 4.9 NE 22 35 12 19 1013.9 1013.7 0.0
30/02:30pm 25.3 23.2 17.2 61 5.0 NE 24 39 13 21 1014.2 1014.0 0.0
30/02:00pm 25.2 23.6 17.4 62 4.9 ENE 22 33 12 18 1014.8 1014.6 0.0
30/01:30pm 25.5 23.3 16.9 59 5.3 ENE 24 33 13 18 1015.1 1014.9 0.0
30/01:00pm 25.6 23.6 17.3 60 5.2 E 24 32 13 17 1015.7 1015.5 0.0
30/12:30pm 25.9 24.1 17.0 58 5.5 NE 22 32 12 17 1016.1 1015.9 0.0
30/12:00pm 26.6 25.5 17.7 58 5.6 ENE 20 30 11 16 1016.4 1016.2 0.0
30/11:30am 25.8 25.3 17.7 61 5.1 E 17 26 9 14 1017.0 1016.8 0.0
30/11:00am 26.0 27.2 17.4 59 5.4 ENE 7 19 4 10 1017.3 1017.1 0.0
30/10:30am 27.2 28.1 16.5 52 6.6 NNE 7 17 4 9 1017.6 1017.4 0.0
30/10:00am 25.2 25.3 17.4 62 4.9 NE 13 17 7 9 1018.1 1017.9 0.0
30/09:30am 25.1 27.0 17.6 63 4.7 N 4 17 2 9 1018.3 1018.1 0.0
30/09:00am 24.2 25.5 17.0 64 4.4 N 6 11 3 6 1018.3 1018.1 0.0
30/08:30am 22.4 23.8 16.4 69 3.7 N 4 7 2 4 1018.3 1018.1 0.0
30/08:00am 21.2 23.7 17.2 78 2.5 CALM 0 7 0 4 1018.3 1018.1 0.0
30/07:30am 19.5 20.4 16.7 84 1.7 WSW 7 9 4 5 1018.0 1017.8 0.0
30/07:00am 17.8 17.7 16.0 89 1.1 WSW 11 13 6 7 1017.7 1017.5 0.0
30/06:30am 16.8 16.4 16.3 97 0.3 W 13 15 7 8 1017.5 1017.3 0.0
30/06:00am 17.1 17.2 16.5 96 0.4 WSW 11 13 6 7 1017.1 1016.9 0.0
30/05:30am 17.2 17.3 16.4 95 0.5 WSW 11 13 6 7 1016.9 1016.7 0.0
30/05:00am 17.2 17.0 16.7 97 0.3 W 13 13 7 7 1016.7 1016.5 0.0
30/04:30am 17.2 16.9 16.4 95 0.5 SW 13 13 7 7 1016.7 1016.5 0.0
30/04:00am 17.6 17.4 16.6 94 0.6 WSW 13 15 7 8 1016.7 1016.5 0.0
30/03:30am 17.5 17.7 16.7 95 0.5 W 11 13 6 7 1016.9 1016.7 0.0
30/03:00am 17.5 17.2 16.5 94 0.6 WSW 13 15 7 8 1017.0 1016.8 0.0
30/02:30am 17.6 17.6 16.3 92 0.8 WSW 11 13 6 7 1017.0 1016.8 0.0
30/02:00am 17.8 17.5 16.5 92 0.8 WSW 13 13 7 7 1017.2 1017.0 0.0
30/01:30am 17.9 18.0 16.4 91 0.9 W 11 13 6 7 1017.5 1017.3 0.0
30/01:00am 18.0 18.1 16.5 91 0.9 W 11 13 6 7 1017.8 1017.6 0.0
30/12:30am 18.2 18.3 16.4 89 1.1 WSW 11 13 6 7 1018.1 1017.9 0.0
30/12:00am 18.3 18.2 16.1 87 1.3 W 11 13 6 7 1018.2 1018.0 0.0
 
Date/Time
EDT
Temp
°C
App
Temp
°C
Dew
Point
Rel
Hum
%
Delta-T
°C
Wind Press
QNH
hPa
Press
MSL
hPa
Rain
since 9 am
mm
Dir
 
Spd
km/h
Gust
km/h
Spd
kts
Gust
kts
29/11:30pm 18.7 20.9 16.5 87 1.3 CALM 0 0 0 0 1018.3 1018.1 0.0
29/11:00pm 19.5 20.8 17.1 86 1.5 ESE 6 7 3 4 1018.3 1018.1 0.0

Other Formats:

Comma delimited format used in spreadsheet applications
http://www.bom.gov.au/fwo/IDN60801/IDN60801.94598.axf

JavaScript Object Notation format (JSON) in row-major order
http://www.bom.gov.au/fwo/IDN60801/IDN60801.94598.json